sensor_id;sensor_type;location;lat;lon;timestamp;P1;durP1;ratioP1;P2;durP2;ratioP2
71955;SDS011;59829;50.562;6.258;2023-04-06T00:26:31;5.87;;;2.80;;
71955;SDS011;59829;50.562;6.258;2023-04-06T00:56:31;5.50;;;2.27;;
71955;SDS011;59829;50.562;6.258;2023-04-06T01:26:32;5.37;;;2.57;;
71955;SDS011;59829;50.562;6.258;2023-04-06T01:56:33;4.15;;;1.90;;
71955;SDS011;59829;50.562;6.258;2023-04-06T02:26:34;4.23;;;1.80;;
71955;SDS011;59829;50.562;6.258;2023-04-06T02:56:34;4.30;;;2.00;;
71955;SDS011;59829;50.562;6.258;2023-04-06T03:26:34;3.33;;;1.67;;
71955;SDS011;59829;50.562;6.258;2023-04-06T03:56:35;5.97;;;2.03;;
71955;SDS011;59829;50.562;6.258;2023-04-06T04:26:35;5.00;;;1.90;;
71955;SDS011;59829;50.562;6.258;2023-04-06T04:56:35;4.93;;;2.00;;
71955;SDS011;59829;50.562;6.258;2023-04-06T05:26:36;4.77;;;2.10;;
71955;SDS011;59829;50.562;6.258;2023-04-06T05:56:36;4.77;;;2.10;;
71955;SDS011;59829;50.562;6.258;2023-04-06T06:26:37;4.85;;;2.17;;
71955;SDS011;59829;50.562;6.258;2023-04-06T06:56:39;7.70;;;2.95;;
71955;SDS011;59829;50.562;6.258;2023-04-06T07:26:39;4.72;;;2.22;;
71955;SDS011;59829;50.562;6.258;2023-04-06T07:56:40;5.50;;;2.55;;
71955;SDS011;59829;50.562;6.258;2023-04-06T08:26:40;6.68;;;2.42;;
71955;SDS011;59829;50.562;6.258;2023-04-06T08:56:41;6.03;;;2.72;;
71955;SDS011;59829;50.562;6.258;2023-04-06T09:26:46;6.73;;;2.80;;
71955;SDS011;59829;50.562;6.258;2023-04-06T09:56:51;8.52;;;2.90;;
71955;SDS011;59829;50.562;6.258;2023-04-06T10:26:58;6.05;;;2.88;;
71955;SDS011;59829;50.562;6.258;2023-04-06T10:57:01;7.05;;;3.00;;
71955;SDS011;59829;50.562;6.258;2023-04-06T11:27:01;4.72;;;2.10;;
71955;SDS011;59829;50.562;6.258;2023-04-06T11:57:04;5.68;;;2.72;;
71955;SDS011;59829;50.562;6.258;2023-04-06T12:27:05;5.40;;;2.60;;
71955;SDS011;59829;50.562;6.258;2023-04-06T12:57:05;5.63;;;2.67;;
71955;SDS011;59829;50.562;6.258;2023-04-06T13:27:06;5.47;;;2.65;;
71955;SDS011;59829;50.562;6.258;2023-04-06T13:57:06;4.88;;;2.35;;
71955;SDS011;59829;50.562;6.258;2023-04-06T14:27:07;3.63;;;1.70;;
71955;SDS011;59829;50.562;6.258;2023-04-06T14:57:09;3.38;;;1.45;;
71955;SDS011;59829;50.562;6.258;2023-04-06T15:27:09;3.55;;;1.67;;
71955;SDS011;59829;50.562;6.258;2023-04-06T15:57:10;2.33;;;1.23;;
71955;SDS011;59829;50.562;6.258;2023-04-06T16:27:10;2.17;;;1.00;;
71955;SDS011;59829;50.562;6.258;2023-04-06T16:57:11;2.13;;;1.10;;
71955;SDS011;59829;50.562;6.258;2023-04-06T17:27:11;2.35;;;1.13;;
71955;SDS011;59829;50.562;6.258;2023-04-06T17:57:11;2.15;;;0.95;;
71955;SDS011;59829;50.562;6.258;2023-04-06T18:27:12;3.60;;;1.50;;
71955;SDS011;59829;50.562;6.258;2023-04-06T18:57:12;4.13;;;1.85;;
71955;SDS011;59829;50.562;6.258;2023-04-06T19:27:13;4.78;;;2.42;;
71955;SDS011;59829;50.562;6.258;2023-04-06T19:57:14;4.97;;;2.30;;
71955;SDS011;59829;50.562;6.258;2023-04-06T20:27:14;6.90;;;3.00;;
71955;SDS011;59829;50.562;6.258;2023-04-06T20:57:16;5.70;;;2.43;;
71955;SDS011;59829;50.562;6.258;2023-04-06T21:27:16;6.25;;;2.88;;
71955;SDS011;59829;50.562;6.258;2023-04-06T21:57:16;3.50;;;1.98;;
71955;SDS011;59829;50.562;6.258;2023-04-06T22:27:17;3.10;;;1.52;;
71955;SDS011;59829;50.562;6.258;2023-04-06T22:57:17;1.52;;;0.77;;
71955;SDS011;59829;50.562;6.258;2023-04-06T23:27:18;0.40;;;0.30;;
71955;SDS011;59829;50.562;6.258;2023-04-06T23:57:18;2.25;;;0.90;;
